sensor_id;sensor_type;location;lat;lon;timestamp;temperature;humidity
29663;DHT22;16578;53.266;7.920;2022-08-02T00:02:11;17.30;62.90
29663;DHT22;16578;53.266;7.920;2022-08-02T00:04:37;17.30;62.90
29663;DHT22;16578;53.266;7.920;2022-08-02T00:07:03;17.20;62.90
29663;DHT22;16578;53.266;7.920;2022-08-02T00:09:28;17.20;62.90
29663;DHT22;16578;53.266;7.920;2022-08-02T00:11:54;17.20;62.90
29663;DHT22;16578;53.266;7.920;2022-08-02T00:14:19;17.20;63.00
29663;DHT22;16578;53.266;7.920;2022-08-02T00:16:45;17.20;63.10
29663;DHT22;16578;53.266;7.920;2022-08-02T00:19:11;17.20;63.20
29663;DHT22;16578;53.266;7.920;2022-08-02T00:21:36;17.10;63.40
29663;DHT22;16578;53.266;7.920;2022-08-02T00:24:03;17.10;64.40
29663;DHT22;16578;53.266;7.920;2022-08-02T00:26:28;17.10;63.50
29663;DHT22;16578;53.266;7.920;2022-08-02T00:28:54;17.10;63.60
29663;DHT22;16578;53.266;7.920;2022-08-02T00:31:20;17.10;63.70
29663;DHT22;16578;53.266;7.920;2022-08-02T00:33:45;17.00;63.80
29663;DHT22;16578;53.266;7.920;2022-08-02T00:36:11;17.00;63.90
29663;DHT22;16578;53.266;7.920;2022-08-02T00:38:37;17.00;63.80
29663;DHT22;16578;53.266;7.920;2022-08-02T00:41:02;17.00;63.70
29663;DHT22;16578;53.266;7.920;2022-08-02T00:43:28;17.00;63.70
29663;DHT22;16578;53.266;7.920;2022-08-02T00:45:53;16.90;63.70
29663;DHT22;16578;53.266;7.920;2022-08-02T00:48:19;16.90;63.70
29663;DHT22;16578;53.266;7.920;2022-08-02T00:50:45;16.90;63.70
29663;DHT22;16578;53.266;7.920;2022-08-02T00:53:10;16.90;63.70
29663;DHT22;16578;53.266;7.920;2022-08-02T00:55:37;16.80;63.60
29663;DHT22;16578;53.266;7.920;2022-08-02T00:58:04;16.80;63.80
29663;DHT22;16578;53.266;7.920;2022-08-02T01:00:30;16.80;63.80
29663;DHT22;16578;53.266;7.920;2022-08-02T01:02:55;16.80;63.90
29663;DHT22;16578;53.266;7.920;2022-08-02T01:05:21;16.80;64.00
29663;DHT22;16578;53.266;7.920;2022-08-02T01:07:47;16.70;63.90
29663;DHT22;16578;53.266;7.920;2022-08-02T01:10:12;16.70;64.00
29663;DHT22;16578;53.266;7.920;2022-08-02T01:12:38;16.70;64.00
29663;DHT22;16578;53.266;7.920;2022-08-02T01:15:07;16.70;64.10
29663;DHT22;16578;53.266;7.920;2022-08-02T01:20:33;16.70;64.20
29663;DHT22;16578;53.266;7.920;2022-08-02T01:31:31;16.60;64.60
29663;DHT22;16578;53.266;7.920;2022-08-02T01:36:33;16.60;64.60
29663;DHT22;16578;53.266;7.920;2022-08-02T01:39:02;16.60;64.50
29663;DHT22;16578;53.266;7.920;2022-08-02T01:41:30;16.60;64.50
29663;DHT22;16578;53.266;7.920;2022-08-02T01:43:59;16.60;64.60
29663;DHT22;16578;53.266;7.920;2022-08-02T01:46:26;16.60;64.60
29663;DHT22;16578;53.266;7.920;2022-08-02T01:48:55;16.60;64.70
29663;DHT22;16578;53.266;7.920;2022-08-02T01:51:22;16.60;64.80
29663;DHT22;16578;53.266;7.920;2022-08-02T01:54:11;16.60;64.80
29663;DHT22;16578;53.266;7.920;2022-08-02T01:56:39;16.60;64.80
29663;DHT22;16578;53.266;7.920;2022-08-02T01:59:08;16.60;65.00
29663;DHT22;16578;53.266;7.920;2022-08-02T02:01:36;16.60;65.10
29663;DHT22;16578;53.266;7.920;2022-08-02T02:04:03;16.60;65.00
29663;DHT22;16578;53.266;7.920;2022-08-02T02:06:30;16.60;65.10
29663;DHT22;16578;53.266;7.920;2022-08-02T02:08:59;16.60;65.10
29663;DHT22;16578;53.266;7.920;2022-08-02T02:11:24;16.60;65.10
29663;DHT22;16578;53.266;7.920;2022-08-02T02:13:51;16.60;65.00
29663;DHT22;16578;53.266;7.920;2022-08-02T02:16:18;16.60;64.80
29663;DHT22;16578;53.266;7.920;2022-08-02T02:18:44;16.60;64.80
29663;DHT22;16578;53.266;7.920;2022-08-02T02:21:11;16.60;64.80
29663;DHT22;16578;53.266;7.920;2022-08-02T02:23:37;16.60;65.00
29663;DHT22;16578;53.266;7.920;2022-08-02T02:26:04;16.50;65.10
29663;DHT22;16578;53.266;7.920;2022-08-02T02:28:31;16.60;65.30
29663;DHT22;16578;53.266;7.920;2022-08-02T02:31:19;16.50;65.40
29663;DHT22;16578;53.266;7.920;2022-08-02T02:33:55;16.60;65.40
29663;DHT22;16578;53.266;7.920;2022-08-02T02:36:22;16.60;65.20
29663;DHT22;16578;53.266;7.920;2022-08-02T02:38:49;16.50;65.10
29663;DHT22;16578;53.266;7.920;2022-08-02T02:41:17;16.50;65.20
29663;DHT22;16578;53.266;7.920;2022-08-02T02:43:43;16.40;65.20
29663;DHT22;16578;53.266;7.920;2022-08-02T02:46:11;16.50;65.40
29663;DHT22;16578;53.266;7.920;2022-08-02T02:48:37;16.50;65.50
29663;DHT22;16578;53.266;7.920;2022-08-02T02:51:04;16.40;65.60
29663;DHT22;16578;53.266;7.920;2022-08-02T02:53:31;16.40;65.50
29663;DHT22;16578;53.266;7.920;2022-08-02T02:55:57;16.40;65.50
29663;DHT22;16578;53.266;7.920;2022-08-02T02:58:23;16.40;65.40
29663;DHT22;16578;53.266;7.920;2022-08-02T03:00:49;16.40;65.50
29663;DHT22;16578;53.266;7.920;2022-08-02T03:04:05;16.40;65.60
29663;DHT22;16578;53.266;7.920;2022-08-02T03:06:32;16.40;65.50
29663;DHT22;16578;53.266;7.920;2022-08-02T03:08:58;16.40;65.40
29663;DHT22;16578;53.266;7.920;2022-08-02T03:11:25;16.30;65.40
29663;DHT22;16578;53.266;7.920;2022-08-02T03:14:04;16.30;65.50
29663;DHT22;16578;53.266;7.920;2022-08-02T03:16:30;16.30;65.70
29663;DHT22;16578;53.266;7.920;2022-08-02T03:18:57;16.30;65.70
29663;DHT22;16578;53.266;7.920;2022-08-02T03:21:25;16.30;65.70
29663;DHT22;16578;53.266;7.920;2022-08-02T03:23:51;16.30;65.70
29663;DHT22;16578;53.266;7.920;2022-08-02T03:26:17;16.30;65.80
29663;DHT22;16578;53.266;7.920;2022-08-02T03:28:42;16.30;65.90
29663;DHT22;16578;53.266;7.920;2022-08-02T03:31:09;16.30;65.90
29663;DHT22;16578;53.266;7.920;2022-08-02T03:33:34;16.20;65.90
29663;DHT22;16578;53.266;7.920;2022-08-02T03:36:05;16.30;66.00
29663;DHT22;16578;53.266;7.920;2022-08-02T03:38:33;16.30;66.00
29663;DHT22;16578;53.266;7.920;2022-08-02T03:41:01;16.20;65.60
29663;DHT22;16578;53.266;7.920;2022-08-02T03:43:28;16.20;65.60
29663;DHT22;16578;53.266;7.920;2022-08-02T03:45:54;16.20;65.70
29663;DHT22;16578;53.266;7.920;2022-08-02T03:48:21;16.20;65.90
29663;DHT22;16578;53.266;7.920;2022-08-02T03:50:47;16.20;66.00
29663;DHT22;16578;53.266;7.920;2022-08-02T03:53:15;16.10;66.10
29663;DHT22;16578;53.266;7.920;2022-08-02T03:55:41;16.10;66.20
29663;DHT22;16578;53.266;7.920;2022-08-02T03:58:07;16.10;66.20
29663;DHT22;16578;53.266;7.920;2022-08-02T04:00:32;16.10;66.10
29663;DHT22;16578;53.266;7.920;2022-08-02T04:02:58;16.10;66.10
29663;DHT22;16578;53.266;7.920;2022-08-02T04:05:24;16.10;66.30
29663;DHT22;16578;53.266;7.920;2022-08-02T04:07:50;16.10;66.40
29663;DHT22;16578;53.266;7.920;2022-08-02T04:10:16;16.10;66.40
29663;DHT22;16578;53.266;7.920;2022-08-02T04:12:42;16.10;66.20
29663;DHT22;16578;53.266;7.920;2022-08-02T04:15:10;16.10;66.20
29663;DHT22;16578;53.266;7.920;2022-08-02T04:17:40;16.10;66.30
29663;DHT22;16578;53.266;7.920;2022-08-02T04:20:27;16.10;66.40
29663;DHT22;16578;53.266;7.920;2022-08-02T04:22:57;16.10;66.40
29663;DHT22;16578;53.266;7.920;2022-08-02T04:25:25;16.00;66.30
29663;DHT22;16578;53.266;7.920;2022-08-02T04:27:52;16.00;66.50
29663;DHT22;16578;53.266;7.920;2022-08-02T04:30:18;16.00;66.50
29663;DHT22;16578;53.266;7.920;2022-08-02T04:32:45;16.00;66.60
29663;DHT22;16578;53.266;7.920;2022-08-02T04:35:11;16.00;66.70
29663;DHT22;16578;53.266;7.920;2022-08-02T04:37:37;16.00;66.90
29663;DHT22;16578;53.266;7.920;2022-08-02T04:40:12;16.10;67.20
29663;DHT22;16578;53.266;7.920;2022-08-02T04:42:38;16.10;67.50
29663;DHT22;16578;53.266;7.920;2022-08-02T04:45:05;16.10;67.50
29663;DHT22;16578;53.266;7.920;2022-08-02T04:47:31;16.10;67.60
29663;DHT22;16578;53.266;7.920;2022-08-02T04:49:57;16.10;67.60
29663;DHT22;16578;53.266;7.920;2022-08-02T04:52:22;16.20;67.80
29663;DHT22;16578;53.266;7.920;2022-08-02T04:54:48;16.20;67.90
29663;DHT22;16578;53.266;7.920;2022-08-02T04:57:16;16.20;67.90
29663;DHT22;16578;53.266;7.920;2022-08-02T05:00:00;16.30;68.00
29663;DHT22;16578;53.266;7.920;2022-08-02T05:02:25;16.30;67.90
29663;DHT22;16578;53.266;7.920;2022-08-02T05:04:51;16.30;68.00
29663;DHT22;16578;53.266;7.920;2022-08-02T05:07:16;16.30;68.00
29663;DHT22;16578;53.266;7.920;2022-08-02T05:09:42;16.30;68.00
29663;DHT22;16578;53.266;7.920;2022-08-02T05:12:08;16.40;68.10
29663;DHT22;16578;53.266;7.920;2022-08-02T05:14:33;16.40;68.20
29663;DHT22;16578;53.266;7.920;2022-08-02T05:16:59;16.40;68.20
29663;DHT22;16578;53.266;7.920;2022-08-02T05:19:25;16.40;68.20
29663;DHT22;16578;53.266;7.920;2022-08-02T05:21:50;16.50;68.40
29663;DHT22;16578;53.266;7.920;2022-08-02T05:24:16;16.50;68.40
29663;DHT22;16578;53.266;7.920;2022-08-02T05:26:42;16.50;68.50
29663;DHT22;16578;53.266;7.920;2022-08-02T05:29:07;16.60;68.60
29663;DHT22;16578;53.266;7.920;2022-08-02T05:31:33;16.70;68.70
29663;DHT22;16578;53.266;7.920;2022-08-02T05:33:58;16.70;68.80
29663;DHT22;16578;53.266;7.920;2022-08-02T05:36:24;16.70;68.80
29663;DHT22;16578;53.266;7.920;2022-08-02T05:38:49;16.80;68.80
29663;DHT22;16578;53.266;7.920;2022-08-02T05:41:16;16.80;68.70
29663;DHT22;16578;53.266;7.920;2022-08-02T05:43:44;16.90;68.70
29663;DHT22;16578;53.266;7.920;2022-08-02T05:46:09;16.90;68.80
29663;DHT22;16578;53.266;7.920;2022-08-02T05:48:35;17.00;68.80
29663;DHT22;16578;53.266;7.920;2022-08-02T05:51:37;17.00;68.80
29663;DHT22;16578;53.266;7.920;2022-08-02T05:54:14;17.20;69.80
29663;DHT22;16578;53.266;7.920;2022-08-02T05:56:50;17.20;68.80
29663;DHT22;16578;53.266;7.920;2022-08-02T05:59:25;17.30;68.70
29663;DHT22;16578;53.266;7.920;2022-08-02T06:01:55;17.30;68.60
29663;DHT22;16578;53.266;7.920;2022-08-02T06:04:33;17.40;69.60
29663;DHT22;16578;53.266;7.920;2022-08-02T06:07:06;17.40;68.50
29663;DHT22;16578;53.266;7.920;2022-08-02T06:09:34;17.50;68.50
29663;DHT22;16578;53.266;7.920;2022-08-02T06:12:02;17.60;68.40
29663;DHT22;16578;53.266;7.920;2022-08-02T06:14:31;17.70;68.40
29663;DHT22;16578;53.266;7.920;2022-08-02T06:16:58;17.80;68.40
29663;DHT22;16578;53.266;7.920;2022-08-02T06:19:25;17.80;68.30
29663;DHT22;16578;53.266;7.920;2022-08-02T06:21:51;17.90;68.10
29663;DHT22;16578;53.266;7.920;2022-08-02T06:24:18;18.00;67.90
29663;DHT22;16578;53.266;7.920;2022-08-02T06:26:48;18.10;67.80
29663;DHT22;16578;53.266;7.920;2022-08-02T06:29:17;18.20;67.70
29663;DHT22;16578;53.266;7.920;2022-08-02T06:31:43;18.30;68.50
29663;DHT22;16578;53.266;7.920;2022-08-02T06:34:09;18.40;67.50
29663;DHT22;16578;53.266;7.920;2022-08-02T06:37:02;18.50;67.40
29663;DHT22;16578;53.266;7.920;2022-08-02T06:39:43;18.60;67.10
29663;DHT22;16578;53.266;7.920;2022-08-02T06:42:19;18.70;67.30
29663;DHT22;16578;53.266;7.920;2022-08-02T06:44:46;18.80;67.10
29663;DHT22;16578;53.266;7.920;2022-08-02T06:47:12;18.90;66.90
29663;DHT22;16578;53.266;7.920;2022-08-02T06:49:38;19.00;66.70
29663;DHT22;16578;53.266;7.920;2022-08-02T06:52:04;19.10;67.50
29663;DHT22;16578;53.266;7.920;2022-08-02T06:54:30;19.10;66.80
29663;DHT22;16578;53.266;7.920;2022-08-02T06:56:56;19.20;66.80
29663;DHT22;16578;53.266;7.920;2022-08-02T06:59:21;19.30;66.70
29663;DHT22;16578;53.266;7.920;2022-08-02T07:01:47;19.40;66.80
29663;DHT22;16578;53.266;7.920;2022-08-02T07:04:12;19.50;66.60
29663;DHT22;16578;53.266;7.920;2022-08-02T07:06:38;19.60;66.40
29663;DHT22;16578;53.266;7.920;2022-08-02T07:09:04;19.70;66.10
29663;DHT22;16578;53.266;7.920;2022-08-02T07:11:29;19.80;66.10
29663;DHT22;16578;53.266;7.920;2022-08-02T07:13:55;19.80;65.80
29663;DHT22;16578;53.266;7.920;2022-08-02T07:16:21;19.90;65.70
29663;DHT22;16578;53.266;7.920;2022-08-02T07:18:46;20.00;65.60
29663;DHT22;16578;53.266;7.920;2022-08-02T07:21:12;20.10;65.70
29663;DHT22;16578;53.266;7.920;2022-08-02T07:23:37;20.10;65.70
29663;DHT22;16578;53.266;7.920;2022-08-02T07:26:03;20.20;65.60
29663;DHT22;16578;53.266;7.920;2022-08-02T07:28:28;20.30;65.60
29663;DHT22;16578;53.266;7.920;2022-08-02T07:30:54;20.30;65.40
29663;DHT22;16578;53.266;7.920;2022-08-02T07:33:20;20.40;65.40
29663;DHT22;16578;53.266;7.920;2022-08-02T07:35:46;20.50;65.20
29663;DHT22;16578;53.266;7.920;2022-08-02T07:38:11;20.60;65.20
29663;DHT22;16578;53.266;7.920;2022-08-02T07:40:37;20.60;65.30
29663;DHT22;16578;53.266;7.920;2022-08-02T07:43:02;20.70;65.30
29663;DHT22;16578;53.266;7.920;2022-08-02T07:45:28;20.70;65.00
29663;DHT22;16578;53.266;7.920;2022-08-02T07:47:54;20.80;65.00
29663;DHT22;16578;53.266;7.920;2022-08-02T07:50:21;20.90;65.10
29663;DHT22;16578;53.266;7.920;2022-08-02T07:52:48;21.00;65.00
29663;DHT22;16578;53.266;7.920;2022-08-02T07:55:15;21.00;64.90
29663;DHT22;16578;53.266;7.920;2022-08-02T07:57:42;21.10;64.90
29663;DHT22;16578;53.266;7.920;2022-08-02T08:00:08;21.10;64.80
29663;DHT22;16578;53.266;7.920;2022-08-02T08:02:35;21.20;64.80
29663;DHT22;16578;53.266;7.920;2022-08-02T08:05:00;21.40;64.80
29663;DHT22;16578;53.266;7.920;2022-08-02T08:07:26;21.40;64.50
29663;DHT22;16578;53.266;7.920;2022-08-02T08:09:52;21.50;64.10
29663;DHT22;16578;53.266;7.920;2022-08-02T08:12:18;21.60;64.10
29663;DHT22;16578;53.266;7.920;2022-08-02T08:14:43;21.70;64.10
29663;DHT22;16578;53.266;7.920;2022-08-02T08:17:09;21.80;64.00
29663;DHT22;16578;53.266;7.920;2022-08-02T08:19:35;21.90;63.70
29663;DHT22;16578;53.266;7.920;2022-08-02T08:22:00;21.90;63.60
29663;DHT22;16578;53.266;7.920;2022-08-02T08:24:28;22.00;63.10
29663;DHT22;16578;53.266;7.920;2022-08-02T08:26:55;22.10;63.30
29663;DHT22;16578;53.266;7.920;2022-08-02T08:29:21;22.10;62.60
29663;DHT22;16578;53.266;7.920;2022-08-02T08:31:47;22.20;62.40
29663;DHT22;16578;53.266;7.920;2022-08-02T08:34:13;22.30;62.80
29663;DHT22;16578;53.266;7.920;2022-08-02T08:36:39;22.40;62.40
29663;DHT22;16578;53.266;7.920;2022-08-02T08:39:05;22.50;62.30
29663;DHT22;16578;53.266;7.920;2022-08-02T08:41:31;22.60;62.00
29663;DHT22;16578;53.266;7.920;2022-08-02T08:43:56;22.60;61.70
29663;DHT22;16578;53.266;7.920;2022-08-02T08:46:32;22.70;61.50
29663;DHT22;16578;53.266;7.920;2022-08-02T08:49:02;22.70;60.80
29663;DHT22;16578;53.266;7.920;2022-08-02T08:51:35;22.80;60.30
29663;DHT22;16578;53.266;7.920;2022-08-02T08:54:02;22.80;59.70
29663;DHT22;16578;53.266;7.920;2022-08-02T08:56:32;22.90;60.40
29663;DHT22;16578;53.266;7.920;2022-08-02T08:58:58;23.00;60.10
29663;DHT22;16578;53.266;7.920;2022-08-02T09:01:24;23.00;59.90
29663;DHT22;16578;53.266;7.920;2022-08-02T09:03:50;23.10;59.80
29663;DHT22;16578;53.266;7.920;2022-08-02T09:06:15;23.20;59.40
29663;DHT22;16578;53.266;7.920;2022-08-02T09:08:41;23.20;59.20
29663;DHT22;16578;53.266;7.920;2022-08-02T09:11:15;23.30;59.30
29663;DHT22;16578;53.266;7.920;2022-08-02T09:13:49;23.40;59.30
29663;DHT22;16578;53.266;7.920;2022-08-02T09:16:46;23.50;59.70
29663;DHT22;16578;53.266;7.920;2022-08-02T09:19:25;23.50;58.20
29663;DHT22;16578;53.266;7.920;2022-08-02T09:22:00;23.60;58.70
29663;DHT22;16578;53.266;7.920;2022-08-02T09:24:26;23.60;57.90
29663;DHT22;16578;53.266;7.920;2022-08-02T09:26:52;23.70;57.80
29663;DHT22;16578;53.266;7.920;2022-08-02T09:29:21;23.80;57.50
29663;DHT22;16578;53.266;7.920;2022-08-02T09:31:48;23.80;57.10
29663;DHT22;16578;53.266;7.920;2022-08-02T09:34:14;23.90;56.60
29663;DHT22;16578;53.266;7.920;2022-08-02T09:36:45;24.00;56.90
29663;DHT22;16578;53.266;7.920;2022-08-02T09:39:14;24.10;56.60
29663;DHT22;16578;53.266;7.920;2022-08-02T09:41:41;24.10;56.60
29663;DHT22;16578;53.266;7.920;2022-08-02T09:44:13;24.20;56.80
29663;DHT22;16578;53.266;7.920;2022-08-02T09:46:42;24.20;56.20
29663;DHT22;16578;53.266;7.920;2022-08-02T09:49:18;24.30;56.40
29663;DHT22;16578;53.266;7.920;2022-08-02T09:54:16;24.40;55.00
29663;DHT22;16578;53.266;7.920;2022-08-02T09:56:53;24.40;55.10
29663;DHT22;16578;53.266;7.920;2022-08-02T09:59:20;24.40;55.00
29663;DHT22;16578;53.266;7.920;2022-08-02T10:01:47;24.50;55.30
29663;DHT22;16578;53.266;7.920;2022-08-02T10:04:14;24.50;54.40
29663;DHT22;16578;53.266;7.920;2022-08-02T10:06:41;24.50;53.70
29663;DHT22;16578;53.266;7.920;2022-08-02T10:09:09;24.60;53.20
29663;DHT22;16578;53.266;7.920;2022-08-02T10:11:35;24.60;53.40
29663;DHT22;16578;53.266;7.920;2022-08-02T10:14:03;24.60;53.10
29663;DHT22;16578;53.266;7.920;2022-08-02T10:16:30;24.70;52.70
29663;DHT22;16578;53.266;7.920;2022-08-02T10:18:57;24.80;53.40
29663;DHT22;16578;53.266;7.920;2022-08-02T10:24:12;24.90;53.00
29663;DHT22;16578;53.266;7.920;2022-08-02T10:26:38;24.90;53.40
29663;DHT22;16578;53.266;7.920;2022-08-02T10:29:04;24.90;54.20
29663;DHT22;16578;53.266;7.920;2022-08-02T10:31:36;24.90;53.30
29663;DHT22;16578;53.266;7.920;2022-08-02T10:34:07;25.00;53.50
29663;DHT22;16578;53.266;7.920;2022-08-02T10:36:36;25.10;52.10
29663;DHT22;16578;53.266;7.920;2022-08-02T10:39:03;25.10;51.90
29663;DHT22;16578;53.266;7.920;2022-08-02T10:41:39;25.20;51.80
29663;DHT22;16578;53.266;7.920;2022-08-02T10:44:05;25.30;51.10
29663;DHT22;16578;53.266;7.920;2022-08-02T10:46:37;25.30;51.70
29663;DHT22;16578;53.266;7.920;2022-08-02T10:49:06;25.30;51.90
29663;DHT22;16578;53.266;7.920;2022-08-02T10:54:22;25.40;52.00
29663;DHT22;16578;53.266;7.920;2022-08-02T10:56:49;25.50;52.40
29663;DHT22;16578;53.266;7.920;2022-08-02T10:59:34;25.50;51.70
29663;DHT22;16578;53.266;7.920;2022-08-02T11:02:03;25.70;50.90
29663;DHT22;16578;53.266;7.920;2022-08-02T11:07:31;25.70;50.80
29663;DHT22;16578;53.266;7.920;2022-08-02T11:09:57;25.80;51.30
29663;DHT22;16578;53.266;7.920;2022-08-02T11:12:24;25.90;51.70
29663;DHT22;16578;53.266;7.920;2022-08-02T11:15:00;26.00;51.10
29663;DHT22;16578;53.266;7.920;2022-08-02T11:17:54;26.00;50.20
29663;DHT22;16578;53.266;7.920;2022-08-02T11:20:21;26.10;50.10
29663;DHT22;16578;53.266;7.920;2022-08-02T11:22:48;26.10;50.50
29663;DHT22;16578;53.266;7.920;2022-08-02T11:27:57;26.20;50.60
29663;DHT22;16578;53.266;7.920;2022-08-02T11:30:24;26.30;51.00
29663;DHT22;16578;53.266;7.920;2022-08-02T11:32:49;26.30;51.60
29663;DHT22;16578;53.266;7.920;2022-08-02T11:35:19;26.30;51.80
29663;DHT22;16578;53.266;7.920;2022-08-02T11:37:46;26.40;51.90
29663;DHT22;16578;53.266;7.920;2022-08-02T11:40:14;26.40;51.40
29663;DHT22;16578;53.266;7.920;2022-08-02T11:42:42;26.40;50.80
29663;DHT22;16578;53.266;7.920;2022-08-02T11:45:14;26.40;50.60
29663;DHT22;16578;53.266;7.920;2022-08-02T11:47:48;26.50;51.20
29663;DHT22;16578;53.266;7.920;2022-08-02T11:50:15;26.60;51.60
29663;DHT22;16578;53.266;7.920;2022-08-02T11:52:41;26.60;51.70
29663;DHT22;16578;53.266;7.920;2022-08-02T11:55:09;26.60;51.00
29663;DHT22;16578;53.266;7.920;2022-08-02T11:57:35;26.60;51.00
29663;DHT22;16578;53.266;7.920;2022-08-02T12:00:03;26.70;51.20
29663;DHT22;16578;53.266;7.920;2022-08-02T12:02:31;26.70;51.20
29663;DHT22;16578;53.266;7.920;2022-08-02T12:05:06;26.70;50.80
29663;DHT22;16578;53.266;7.920;2022-08-02T12:07:37;26.80;50.60
29663;DHT22;16578;53.266;7.920;2022-08-02T12:10:06;26.70;50.50
29663;DHT22;16578;53.266;7.920;2022-08-02T12:12:33;26.80;50.50
29663;DHT22;16578;53.266;7.920;2022-08-02T12:15:10;26.80;50.60
29663;DHT22;16578;53.266;7.920;2022-08-02T12:17:36;26.80;51.60
29663;DHT22;16578;53.266;7.920;2022-08-02T12:20:20;26.80;51.40
29663;DHT22;16578;53.266;7.920;2022-08-02T12:23:01;26.90;51.70
29663;DHT22;16578;53.266;7.920;2022-08-02T12:25:27;26.90;52.00
29663;DHT22;16578;53.266;7.920;2022-08-02T12:28:15;26.90;52.30
29663;DHT22;16578;53.266;7.920;2022-08-02T12:30:57;27.00;52.20
29663;DHT22;16578;53.266;7.920;2022-08-02T12:33:25;27.10;52.00
29663;DHT22;16578;53.266;7.920;2022-08-02T12:35:51;27.10;52.10
29663;DHT22;16578;53.266;7.920;2022-08-02T12:38:17;27.10;51.90
29663;DHT22;16578;53.266;7.920;2022-08-02T12:40:43;27.10;52.00
29663;DHT22;16578;53.266;7.920;2022-08-02T12:43:20;27.10;51.90
29663;DHT22;16578;53.266;7.920;2022-08-02T12:45:53;27.20;51.70
29663;DHT22;16578;53.266;7.920;2022-08-02T12:48:38;27.20;51.70
29663;DHT22;16578;53.266;7.920;2022-08-02T12:51:30;27.30;51.30
29663;DHT22;16578;53.266;7.920;2022-08-02T12:54:17;27.30;51.30
29663;DHT22;16578;53.266;7.920;2022-08-02T12:56:43;27.30;51.40
29663;DHT22;16578;53.266;7.920;2022-08-02T12:59:09;27.30;51.90
29663;DHT22;16578;53.266;7.920;2022-08-02T13:01:34;27.40;52.00
29663;DHT22;16578;53.266;7.920;2022-08-02T13:04:00;27.40;51.80
29663;DHT22;16578;53.266;7.920;2022-08-02T13:06:26;27.40;51.90
29663;DHT22;16578;53.266;7.920;2022-08-02T13:08:52;27.40;52.10
29663;DHT22;16578;53.266;7.920;2022-08-02T13:11:20;27.50;52.10
29663;DHT22;16578;53.266;7.920;2022-08-02T13:13:46;27.50;52.30
29663;DHT22;16578;53.266;7.920;2022-08-02T13:16:12;27.50;51.90
29663;DHT22;16578;53.266;7.920;2022-08-02T13:18:38;27.60;52.00
29663;DHT22;16578;53.266;7.920;2022-08-02T13:21:04;27.60;51.70
29663;DHT22;16578;53.266;7.920;2022-08-02T13:23:31;27.60;51.70
29663;DHT22;16578;53.266;7.920;2022-08-02T13:25:57;27.70;51.70
29663;DHT22;16578;53.266;7.920;2022-08-02T13:28:22;27.70;51.90
29663;DHT22;16578;53.266;7.920;2022-08-02T13:30:48;27.70;52.10
29663;DHT22;16578;53.266;7.920;2022-08-02T13:33:14;27.80;52.50
29663;DHT22;16578;53.266;7.920;2022-08-02T13:35:41;27.80;52.60
29663;DHT22;16578;53.266;7.920;2022-08-02T13:38:07;27.80;52.30
29663;DHT22;16578;53.266;7.920;2022-08-02T13:40:33;27.90;52.20
29663;DHT22;16578;53.266;7.920;2022-08-02T13:42:59;27.90;52.20
29663;DHT22;16578;53.266;7.920;2022-08-02T13:45:24;27.90;51.80
29663;DHT22;16578;53.266;7.920;2022-08-02T13:47:50;27.90;51.70
29663;DHT22;16578;53.266;7.920;2022-08-02T13:50:16;28.00;51.80
29663;DHT22;16578;53.266;7.920;2022-08-02T13:52:41;28.00;51.70
29663;DHT22;16578;53.266;7.920;2022-08-02T13:55:07;28.00;51.80
29663;DHT22;16578;53.266;7.920;2022-08-02T13:57:33;28.00;51.40
29663;DHT22;16578;53.266;7.920;2022-08-02T13:59:59;28.10;51.60
29663;DHT22;16578;53.266;7.920;2022-08-02T14:02:27;28.10;51.70
29663;DHT22;16578;53.266;7.920;2022-08-02T14:04:53;28.10;51.50
29663;DHT22;16578;53.266;7.920;2022-08-02T14:07:19;28.20;51.70
29663;DHT22;16578;53.266;7.920;2022-08-02T14:09:45;28.20;51.70
29663;DHT22;16578;53.266;7.920;2022-08-02T14:12:11;28.20;51.70
29663;DHT22;16578;53.266;7.920;2022-08-02T14:14:37;28.20;51.90
29663;DHT22;16578;53.266;7.920;2022-08-02T14:17:03;28.20;52.30
29663;DHT22;16578;53.266;7.920;2022-08-02T14:19:28;28.30;51.70
29663;DHT22;16578;53.266;7.920;2022-08-02T14:21:54;28.30;51.60
29663;DHT22;16578;53.266;7.920;2022-08-02T14:24:20;28.20;51.50
29663;DHT22;16578;53.266;7.920;2022-08-02T14:26:47;28.30;51.70
29663;DHT22;16578;53.266;7.920;2022-08-02T14:29:14;28.30;52.00
29663;DHT22;16578;53.266;7.920;2022-08-02T14:31:40;28.30;51.90
29663;DHT22;16578;53.266;7.920;2022-08-02T14:34:06;28.30;51.70
29663;DHT22;16578;53.266;7.920;2022-08-02T14:36:32;28.30;51.70
29663;DHT22;16578;53.266;7.920;2022-08-02T14:38:57;28.30;51.50
29663;DHT22;16578;53.266;7.920;2022-08-02T14:41:23;28.30;51.50
29663;DHT22;16578;53.266;7.920;2022-08-02T14:43:49;28.30;51.50
29663;DHT22;16578;53.266;7.920;2022-08-02T14:46:34;28.30;51.40
29663;DHT22;16578;53.266;7.920;2022-08-02T14:49:00;28.30;51.50
29663;DHT22;16578;53.266;7.920;2022-08-02T14:51:29;28.30;51.70
29663;DHT22;16578;53.266;7.920;2022-08-02T14:53:55;28.30;51.90
29663;DHT22;16578;53.266;7.920;2022-08-02T14:56:20;28.30;52.00
29663;DHT22;16578;53.266;7.920;2022-08-02T14:58:46;28.30;51.80
29663;DHT22;16578;53.266;7.920;2022-08-02T15:01:11;28.30;51.90
29663;DHT22;16578;53.266;7.920;2022-08-02T15:03:37;28.30;52.00
29663;DHT22;16578;53.266;7.920;2022-08-02T15:06:03;28.30;51.70
29663;DHT22;16578;53.266;7.920;2022-08-02T15:08:28;28.20;51.80
29663;DHT22;16578;53.266;7.920;2022-08-02T15:10:54;28.20;51.80
29663;DHT22;16578;53.266;7.920;2022-08-02T15:13:19;28.20;51.70
29663;DHT22;16578;53.266;7.920;2022-08-02T15:15:45;28.20;51.60
29663;DHT22;16578;53.266;7.920;2022-08-02T15:18:11;28.10;51.80
29663;DHT22;16578;53.266;7.920;2022-08-02T15:20:37;28.10;51.80
29663;DHT22;16578;53.266;7.920;2022-08-02T15:23:03;28.10;51.50
29663;DHT22;16578;53.266;7.920;2022-08-02T15:25:29;28.10;51.70
29663;DHT22;16578;53.266;7.920;2022-08-02T15:27:54;28.10;51.80
29663;DHT22;16578;53.266;7.920;2022-08-02T15:30:20;28.00;51.70
29663;DHT22;16578;53.266;7.920;2022-08-02T15:32:45;28.00;51.60
29663;DHT22;16578;53.266;7.920;2022-08-02T15:35:11;28.00;51.60
29663;DHT22;16578;53.266;7.920;2022-08-02T15:37:37;28.00;51.80
29663;DHT22;16578;53.266;7.920;2022-08-02T15:40:03;27.90;51.80
29663;DHT22;16578;53.266;7.920;2022-08-02T15:42:29;27.90;51.70
29663;DHT22;16578;53.266;7.920;2022-08-02T15:44:54;27.90;51.90
29663;DHT22;16578;53.266;7.920;2022-08-02T15:47:20;27.80;52.10
29663;DHT22;16578;53.266;7.920;2022-08-02T15:49:46;27.80;52.00
29663;DHT22;16578;53.266;7.920;2022-08-02T15:52:13;27.80;52.10
29663;DHT22;16578;53.266;7.920;2022-08-02T15:54:39;27.80;52.30
29663;DHT22;16578;53.266;7.920;2022-08-02T15:57:05;27.80;52.60
29663;DHT22;16578;53.266;7.920;2022-08-02T15:59:30;27.80;52.70
29663;DHT22;16578;53.266;7.920;2022-08-02T16:01:56;27.80;52.60
29663;DHT22;16578;53.266;7.920;2022-08-02T16:04:22;27.80;52.50